Relevés horaires St-Hubert (Belgique)


Relevés horaires à St-Hubert - Samedi 12 Févr. 2022
Heure UTC1 Température [°C] Vent [km/h] Hum. [%] Pres.4 [hPa] Visi. [Km] Nébu. [octa] Préc.5 [mm] Cond.
2m. Res. Ros. Dir.2 Vit. Moy. Raf.3
23:00 -1.6 -3.7 -5.4 S 5.6 9.3 16.7 75 1023.3(-1.1/3h) 45 0/8 -- --
22:00 -1.1 -4.4 -5.1 S 9.3 9.3 16.7 74 1023.5(-1.3/3h) 35 0/8 -- --
21:00 -0.9 -3.6 -4.9 S 7.4 9.3 14.8 74 1023.9(-1.2/3h) 35 0/8 -- --
20:00 -0.9 -3.6 -4.9 SSE 7.4 9.3 14.8 74 1024.3(-1.2/3h) 35 0/8 -- --
19:00 -0.4 -3 -5.1 SSE 7.4 9.3 14.8 70 1024.7(-1.0/3h) 40 0/8 -- --
18:00 -0.3 -2.9 -4.5 SSE 7.4 9.3 18.5 73 1025(-1.6/3h) 35 0/8 0/12h
--
17:00 0.5 -1.3 -5.2 SSE 5.6 7.4 13.0 65 1025.1(-2.0/3h) 35 0/8 -- --
16:00 2.1 0.5 -5.4 S 5.6 7.4 13.0 57 1025.1(-2.6/3h) 35 0/8 -- --
15:00 2.8 0.7 -5.6 SSE 7.4 9.3 18.5 54 1025.9(-2.6/3h) 30 0/8 -- --
14:00 2.8 0.7 -6.6 SSE 7.4 9.3 16.7 50 1026.7(-2.7/3h) 35 0/8 -- --
13:00 2.1 -0.6 -5.8 SE 9.3 9.3 18.5 56 1027.9(-2.4/3h) 35 0/8 -- --
12:00 1.7 -0.6 -4.0 SSE 7.4 9.3 16.7 66 1028.9(-1.8/3h) 30 0/8 0/6h
--
11:00 0.6 -1.8 -3.4 SSE 7.4 9.3 14.8 74 1030.2(-0.8/3h) 26 0/8 -- --
10:00 -0.7 -3.4 -4.5 SE 7.4 9.3 13.0 75 1031.1(-0.5/3h) 24 0/8 -- --
09:00 -1.3 -4.1 -4.7 SE 7.4 7.4 13.0 78 1031.6(-0.7/3h) 24 0/8 -- --
08:00 -1.9 -4.8 -5.2 SE 7.4 7.4 11.1 78 1031.7(-1.3/3h) 23 0/8 -- --
07:00 -2.2 -4.4 -5.2 SE 5.6 5.6 9.3 80 1032(-1.5/3h) 22 0/8 -- --
06:00 -2.6 -4.8 -4.9 SE 5.6 7.4 11.1 84 1032.7(-1.2/3h) 20 0/8 0/12h
--
05:00 -2.8 -5.1 -5.3 SE 5.6 7.4 11.1 83 1033.3(-1.6/3h) 20 0/8 -- --
04:00 -2.3 -5.2 -4.8 SE 7.4 7.4 11.1 83 1033.6(-1.5/3h) 21 0/8 -- --
03:00 -1.8 -4.6 -4.8 SE 7.4 7.4 9.3 80 1033.8(-1.8/3h) 25 0/8 -- --
02:00 -1.9 -4 -4.8 SE 5.6 7.4 9.3 80 1034.7(-1.2/3h) 24 0/8 -- --
01:00 -1.7 -3.8 -4.5 ESE 5.6 5.6 7.4 81 1035.1(-1.0/3h) 24 0/8 -- --
00:00 -1.5 -1.5 -4.1 ESE 3.7 5.6 7.4 82 1035.6(-0.5/3h) 22 0/8 0/6h
0/24h
--

1 Coordinated Universal Time. Actuellement il est 02:00 locale et 01:00 UTC.

2 Le vent souffle depuis la direction indiquée vers la direction oposée.

3 Les rafales max. sont disponible 40 min après l'heure du relevé.

4 Pour les stations d'altitude (plus de 600m) le géopotentiel du niveau le plus proche de la pression obligatoire est indiqué.

5 Les stations disposant d'un diffuseur peuvent indiquer "trace". Cela signifie que des précipitations ont touchés le sol mais que la quantité est inférieure à 0.1 mm.

Récapitulatif de la journée
Température [°C] Vent [km/h] Ensoleillement4 [h] Precipitations totale5 [mm] Pression [Hpa]
Min1 Max.2 Moy.3 Max. Min Max.
-3.4 3.2 8.1 18.5 0 h 0 min 0 1023.3 1035.6

1 Température minimale relevée entre 18:00 UTC la veille et 18:00 UTC le jour donné.

2 Température maximale relevée entre 06:00 UTC le jour donné et 06:00 UTC le lendemain.

3 Vent moyen de la journée basé sur les relevés horaires.

4 Ensoleillement en heures relevé entre 06:00 UTC la veille et 06:00 UTC le jour donné.

5 Précipitations totales tombées entre 06:00 UTC la jour donné et 06:00 UTC le lendemain.

Graphiques horaires